createdAt,value
2022-12-15T00:03:26.202Z,17.60
2022-12-15T00:08:47.223Z,17.60
2022-12-15T00:14:09.652Z,17.50
2022-12-15T00:19:30.490Z,17.60
2022-12-15T00:24:51.267Z,17.60
2022-12-15T00:30:13.545Z,17.60
2022-12-15T00:35:34.294Z,17.60
2022-12-15T00:40:37.817Z,17.60
2022-12-15T00:46:01.198Z,17.70
2022-12-15T00:51:04.826Z,17.60
2022-12-15T00:56:26.282Z,17.60
2022-12-15T01:01:49.617Z,17.60
2022-12-15T01:07:11.006Z,17.60
2022-12-15T01:12:31.752Z,17.60
2022-12-15T01:17:54.135Z,17.60
2022-12-15T01:22:57.819Z,17.60
2022-12-15T01:28:01.454Z,17.60
2022-12-15T01:33:06.345Z,17.60
2022-12-15T01:38:10.191Z,17.60
2022-12-15T01:43:14.743Z,17.70
2022-12-15T01:48:24.286Z,17.60
2022-12-15T01:53:28.962Z,17.60
2022-12-15T01:58:32.843Z,17.50
2022-12-15T02:03:38.265Z,17.60
2022-12-15T02:08:42.445Z,17.60
2022-12-15T02:13:51.401Z,17.60
2022-12-15T02:19:01.070Z,17.50
2022-12-15T02:24:33.536Z,17.60
2022-12-15T02:30:10.144Z,17.60
2022-12-15T02:35:17.099Z,17.60
2022-12-15T02:40:20.807Z,17.50
2022-12-15T02:45:31.756Z,17.60
2022-12-15T02:50:53.607Z,17.60
2022-12-15T02:56:02.418Z,17.50
2022-12-15T03:01:10.047Z,17.60
2022-12-15T03:06:13.551Z,17.60
2022-12-15T03:11:16.997Z,17.50
2022-12-15T03:16:22.432Z,17.50
2022-12-15T03:21:26.009Z,17.50
2022-12-15T03:26:29.519Z,17.60
2022-12-15T03:31:34.417Z,17.60
2022-12-15T03:36:38.033Z,17.50
2022-12-15T03:41:41.859Z,17.50
2022-12-15T03:46:46.720Z,17.50
2022-12-15T03:51:50.222Z,17.50
2022-12-15T03:56:53.938Z,17.50
2022-12-15T04:01:58.949Z,17.50
2022-12-15T04:07:02.657Z,17.50
2022-12-15T04:12:06.395Z,17.50
2022-12-15T04:17:11.938Z,17.50
2022-12-15T04:22:18.066Z,17.60
2022-12-15T04:27:38.869Z,17.40
2022-12-15T04:33:01.138Z,17.50
2022-12-15T04:38:22.065Z,17.50
2022-12-15T04:43:43.506Z,17.50
2022-12-15T04:49:05.830Z,17.50
2022-12-15T04:54:26.678Z,17.40
2022-12-15T04:59:47.456Z,17.50
2022-12-15T05:05:09.727Z,17.50
2022-12-15T05:10:31.015Z,17.50
2022-12-15T05:15:52.383Z,17.40
2022-12-15T05:21:14.763Z,17.40
2022-12-15T05:26:35.561Z,17.40
2022-12-15T05:31:55.389Z,17.40
2022-12-15T05:37:01.931Z,17.50
2022-12-15T05:42:05.733Z,17.40
2022-12-15T05:47:09.554Z,17.50
2022-12-15T05:52:14.464Z,17.50
2022-12-15T05:57:17.970Z,17.40
2022-12-15T06:02:21.629Z,17.40
2022-12-15T06:07:26.560Z,17.40
2022-12-15T06:12:30.149Z,17.40
2022-12-15T06:17:33.743Z,17.40
2022-12-15T06:22:38.646Z,17.40
2022-12-15T06:27:42.134Z,17.40
2022-12-15T06:32:45.785Z,17.40
2022-12-15T06:37:54.826Z,17.40
2022-12-15T06:42:58.335Z,17.40
2022-12-15T06:48:02.064Z,17.40
2022-12-15T06:53:07.013Z,17.40
2022-12-15T06:58:10.501Z,17.40
2022-12-15T07:03:16.854Z,17.40
2022-12-15T07:08:25.641Z,17.40
2022-12-15T07:13:32.610Z,17.40
2022-12-15T07:18:36.534Z,17.40
2022-12-15T07:23:57.850Z,17.40
2022-12-15T07:29:01.867Z,17.30
2022-12-15T07:34:05.510Z,17.30
2022-12-15T07:39:10.612Z,17.30
2022-12-15T07:44:15.387Z,17.40
2022-12-15T07:49:19.303Z,17.30
2022-12-15T07:54:24.193Z,17.40
2022-12-15T07:59:28.020Z,17.40
2022-12-15T08:04:31.505Z,17.40
2022-12-15T08:09:36.544Z,17.30
2022-12-15T08:14:40.036Z,17.30
2022-12-15T08:19:43.889Z,17.40
2022-12-15T08:24:49.047Z,17.30
2022-12-15T08:29:52.974Z,17.40
2022-12-15T08:34:56.661Z,17.30
2022-12-15T08:40:01.623Z,17.30
2022-12-15T08:45:05.552Z,17.30
2022-12-15T08:50:10.178Z,17.30
2022-12-15T08:55:19.403Z,17.30
2022-12-15T09:00:25.870Z,17.40
2022-12-15T09:05:29.484Z,17.30
2022-12-15T09:10:34.762Z,17.30
2022-12-15T09:16:07.639Z,17.30
2022-12-15T09:21:03.467Z,17.30
2022-12-15T09:26:09.847Z,17.30
2022-12-15T09:31:15.177Z,17.30
2022-12-15T09:36:18.871Z,17.40
2022-12-15T09:41:27.411Z,17.40
2022-12-15T09:47:08.685Z,17.20
2022-12-15T09:52:13.852Z,17.30
2022-12-15T09:57:28.239Z,17.30
2022-12-15T10:02:51.687Z,17.30
2022-12-15T10:07:55.249Z,17.40
2022-12-15T10:13:04.214Z,17.40
2022-12-15T10:18:11.898Z,17.40
2022-12-15T10:23:17.310Z,17.50
2022-12-15T10:28:33.762Z,17.40
2022-12-15T10:33:40.219Z,17.40
2022-12-15T10:38:45.678Z,17.40
2022-12-15T10:43:51.894Z,17.40
2022-12-15T10:48:59.490Z,17.50
2022-12-15T10:54:10.770Z,17.50
2022-12-15T10:59:26.517Z,17.60
2022-12-15T11:04:31.731Z,17.50
2022-12-15T11:09:36.882Z,17.50
2022-12-15T11:14:47.590Z,17.50
2022-12-15T11:20:01.873Z,17.40
2022-12-15T11:25:15.062Z,17.40
2022-12-15T11:30:22.418Z,17.50
2022-12-15T11:35:29.321Z,17.40
2022-12-15T11:40:38.074Z,17.40
2022-12-15T11:45:51.171Z,17.40
2022-12-15T11:50:57.133Z,17.40
2022-12-15T11:56:06.806Z,17.40
2022-12-15T12:01:18.082Z,17.40
2022-12-15T12:06:26.456Z,17.40
2022-12-15T12:11:34.119Z,17.50
2022-12-15T12:16:42.907Z,17.40
2022-12-15T12:21:50.889Z,17.40
2022-12-15T12:26:58.396Z,17.40
2022-12-15T12:32:07.703Z,17.40
2022-12-15T12:37:17.134Z,17.50
2022-12-15T12:42:23.101Z,17.50
2022-12-15T12:47:29.448Z,17.40
2022-12-15T12:52:35.185Z,17.50
2022-12-15T12:57:40.594Z,17.50
2022-12-15T13:03:13.806Z,17.50
2022-12-15T13:08:50.813Z,17.60
2022-12-15T13:13:55.081Z,17.60
2022-12-15T13:19:04.867Z,17.60
2022-12-15T13:24:31.833Z,17.80
2022-12-15T13:29:36.004Z,17.80
2022-12-15T13:34:45.341Z,17.90
2022-12-15T13:39:58.747Z,17.80
2022-12-15T13:45:40.753Z,17.90
2022-12-15T13:56:36.142Z,17.90
2022-12-15T14:01:39.827Z,17.90
2022-12-15T14:06:48.245Z,17.80
2022-12-15T14:11:54.641Z,17.80
2022-12-15T14:17:01.207Z,17.70
2022-12-15T14:22:21.784Z,17.80
2022-12-15T14:27:32.878Z,17.70
2022-12-15T14:32:36.769Z,17.70
2022-12-15T14:37:41.791Z,17.70
2022-12-15T14:42:46.099Z,17.70
2022-12-15T14:48:30.620Z,17.70
2022-12-15T14:53:21.695Z,17.60
2022-12-15T14:58:31.948Z,17.70
2022-12-15T15:03:05.643Z,17.90
2022-12-15T15:03:38.515Z,17.60
2022-12-15T15:08:47.657Z,17.60
2022-12-15T15:13:56.113Z,17.60
2022-12-15T15:19:02.994Z,17.50
2022-12-15T15:24:26.676Z,17.70
2022-12-15T15:29:38.588Z,17.60
2022-12-15T15:34:42.060Z,17.50
2022-12-15T15:39:48.606Z,17.50
2022-12-15T15:44:52.118Z,17.60
2022-12-15T15:49:56.341Z,17.50
2022-12-15T15:55:01.603Z,17.60
2022-12-15T16:00:17.110Z,17.50
2022-12-15T16:05:21.193Z,17.40
2022-12-15T16:10:26.088Z,17.50
2022-12-15T16:15:32.077Z,17.50
2022-12-15T16:20:36.141Z,17.40
2022-12-15T16:25:48.708Z,17.50
2022-12-15T16:30:54.320Z,17.50
2022-12-15T16:35:59.222Z,17.50
2022-12-15T16:41:07.704Z,17.40
2022-12-15T16:46:13.263Z,17.40
2022-12-15T16:51:28.092Z,17.40
2022-12-15T16:56:32.972Z,17.40
2022-12-15T17:01:40.044Z,17.40
2022-12-15T17:06:44.113Z,17.50
2022-12-15T17:11:49.265Z,17.30
2022-12-15T17:16:52.788Z,17.40
2022-12-15T17:21:56.386Z,17.40
2022-12-15T17:27:01.329Z,17.40
2022-12-15T17:32:04.828Z,17.40
2022-12-15T17:37:11.435Z,17.30
2022-12-15T17:42:19.816Z,17.40
2022-12-15T17:47:24.954Z,17.30
2022-12-15T17:52:30.274Z,17.40
2022-12-15T17:57:35.226Z,17.30
2022-12-15T18:02:38.787Z,17.30
2022-12-15T18:07:42.489Z,17.40
2022-12-15T18:12:47.389Z,17.30
2022-12-15T18:17:51.073Z,17.30
2022-12-15T18:22:54.670Z,17.40
2022-12-15T18:27:59.809Z,17.30
2022-12-15T18:33:03.319Z,17.30
2022-12-15T18:38:14.671Z,17.30
2022-12-15T18:43:21.886Z,17.30
2022-12-15T18:48:28.365Z,17.30
2022-12-15T18:53:33.561Z,17.30
2022-12-15T18:58:40.780Z,17.30
2022-12-15T19:03:44.325Z,17.30
2022-12-15T19:08:47.998Z,17.30
2022-12-15T19:13:52.917Z,17.30
2022-12-15T19:19:17.361Z,17.30
2022-12-15T19:24:45.599Z,17.30
2022-12-15T19:29:51.409Z,17.30
2022-12-15T19:34:54.956Z,17.30
2022-12-15T19:39:59.511Z,17.20
2022-12-15T19:45:16.448Z,17.30
2022-12-15T19:50:21.397Z,17.20
2022-12-15T19:55:27.421Z,17.20
2022-12-15T20:00:32.282Z,17.20
2022-12-15T20:05:36.947Z,17.20
2022-12-15T20:10:40.402Z,17.20
2022-12-15T20:15:47.018Z,17.30
2022-12-15T20:20:50.903Z,17.20
2022-12-15T20:25:54.574Z,17.20
2022-12-15T20:30:59.726Z,17.30
2022-12-15T20:36:03.233Z,17.20
2022-12-15T20:41:07.707Z,17.20
2022-12-15T20:46:15.940Z,17.10
2022-12-15T20:51:23.487Z,17.20
2022-12-15T20:56:27.762Z,17.30
2022-12-15T21:01:35.458Z,17.20
2022-12-15T21:06:39.173Z,17.20
2022-12-15T21:11:43.241Z,17.20
2022-12-15T21:16:48.527Z,17.20
2022-12-15T21:21:55.403Z,17.20
2022-12-15T21:26:59.302Z,17.20
2022-12-15T21:32:04.333Z,17.20
2022-12-15T21:37:13.669Z,17.20
2022-12-15T21:42:18.565Z,17.20
2022-12-15T21:47:26.284Z,17.20
2022-12-15T21:52:29.724Z,17.20
2022-12-15T21:57:33.190Z,17.20
2022-12-15T22:02:38.761Z,17.20
2022-12-15T22:07:42.438Z,17.10
2022-12-15T22:12:47.133Z,17.20
2022-12-15T22:17:52.106Z,17.20
2022-12-15T22:22:55.656Z,17.20
2022-12-15T22:27:59.178Z,17.10
2022-12-15T22:33:04.109Z,17.20
2022-12-15T22:38:07.637Z,17.20
2022-12-15T22:43:20.186Z,17.20
2022-12-15T22:48:31.404Z,17.10
2022-12-15T22:53:37.057Z,17.20
2022-12-15T22:58:44.067Z,17.20
2022-12-15T23:03:48.989Z,17.10
2022-12-15T23:08:55.749Z,17.20
2022-12-15T23:13:59.585Z,17.20
2022-12-15T23:19:05.436Z,17.20
2022-12-15T23:24:09.791Z,17.10
2022-12-15T23:29:13.302Z,17.10
2022-12-15T23:34:18.117Z,17.20
2022-12-15T23:39:21.589Z,17.10
2022-12-15T23:44:25.186Z,17.20
2022-12-15T23:49:30.082Z,17.10
2022-12-15T23:54:33.560Z,17.10
2022-12-15T23:59:37.069Z,17.20
